sensor_id;sensor_type;location;lat;lon;timestamp;P1;durP1;ratioP1;P2;durP2;ratioP2
3853;SDS011;1942;48.770;8.934;2022-07-29T00:01:21;4.90;;;4.50;;
3853;SDS011;1942;48.770;8.934;2022-07-29T00:03:48;4.27;;;3.97;;
3853;SDS011;1942;48.770;8.934;2022-07-29T00:06:16;5.30;;;4.03;;
3853;SDS011;1942;48.770;8.934;2022-07-29T00:08:43;4.93;;;4.00;;
3853;SDS011;1942;48.770;8.934;2022-07-29T00:11:10;5.07;;;4.47;;
3853;SDS011;1942;48.770;8.934;2022-07-29T00:13:36;4.33;;;3.93;;
3853;SDS011;1942;48.770;8.934;2022-07-29T00:16:03;5.30;;;4.10;;
3853;SDS011;1942;48.770;8.934;2022-07-29T00:18:30;6.73;;;4.33;;
3853;SDS011;1942;48.770;8.934;2022-07-29T00:20:57;4.80;;;4.30;;
3853;SDS011;1942;48.770;8.934;2022-07-29T00:23:25;4.70;;;4.27;;
3853;SDS011;1942;48.770;8.934;2022-07-29T00:25:52;4.80;;;4.03;;
3853;SDS011;1942;48.770;8.934;2022-07-29T00:28:18;4.23;;;3.83;;
3853;SDS011;1942;48.770;8.934;2022-07-29T00:30:45;4.70;;;3.97;;
3853;SDS011;1942;48.770;8.934;2022-07-29T00:33:12;4.97;;;4.57;;
3853;SDS011;1942;48.770;8.934;2022-07-29T00:35:38;4.53;;;4.07;;
3853;SDS011;1942;48.770;8.934;2022-07-29T00:38:11;5.20;;;4.40;;
3853;SDS011;1942;48.770;8.934;2022-07-29T00:40:40;4.33;;;3.90;;
3853;SDS011;1942;48.770;8.934;2022-07-29T00:43:08;4.77;;;4.20;;
3853;SDS011;1942;48.770;8.934;2022-07-29T00:45:35;4.43;;;3.87;;
3853;SDS011;1942;48.770;8.934;2022-07-29T00:48:02;4.47;;;4.07;;
3853;SDS011;1942;48.770;8.934;2022-07-29T00:50:30;5.03;;;4.27;;
3853;SDS011;1942;48.770;8.934;2022-07-29T00:52:57;4.57;;;4.17;;
3853;SDS011;1942;48.770;8.934;2022-07-29T00:55:24;4.40;;;4.00;;
3853;SDS011;1942;48.770;8.934;2022-07-29T00:57:52;4.10;;;3.70;;
3853;SDS011;1942;48.770;8.934;2022-07-29T01:00:22;4.07;;;3.77;;
3853;SDS011;1942;48.770;8.934;2022-07-29T01:02:50;4.87;;;4.37;;
3853;SDS011;1942;48.770;8.934;2022-07-29T01:05:18;4.70;;;4.20;;
3853;SDS011;1942;48.770;8.934;2022-07-29T01:07:46;4.80;;;4.27;;
3853;SDS011;1942;48.770;8.934;2022-07-29T01:10:15;5.67;;;4.50;;
3853;SDS011;1942;48.770;8.934;2022-07-29T01:12:44;5.43;;;4.63;;
3853;SDS011;1942;48.770;8.934;2022-07-29T01:15:15;5.37;;;4.40;;
3853;SDS011;1942;48.770;8.934;2022-07-29T01:17:42;4.60;;;4.20;;
3853;SDS011;1942;48.770;8.934;2022-07-29T01:20:12;4.60;;;4.20;;
3853;SDS011;1942;48.770;8.934;2022-07-29T01:22:53;5.20;;;4.23;;
3853;SDS011;1942;48.770;8.934;2022-07-29T01:25:43;5.53;;;4.40;;
3853;SDS011;1942;48.770;8.934;2022-07-29T01:31:22;6.03;;;4.57;;
3853;SDS011;1942;48.770;8.934;2022-07-29T01:33:55;4.80;;;4.27;;
3853;SDS011;1942;48.770;8.934;2022-07-29T01:36:26;5.00;;;4.23;;
3853;SDS011;1942;48.770;8.934;2022-07-29T01:38:58;5.07;;;4.23;;
3853;SDS011;1942;48.770;8.934;2022-07-29T01:41:29;7.33;;;4.30;;
3853;SDS011;1942;48.770;8.934;2022-07-29T01:44:01;4.90;;;4.37;;
3853;SDS011;1942;48.770;8.934;2022-07-29T01:46:33;4.70;;;4.20;;
3853;SDS011;1942;48.770;8.934;2022-07-29T01:49:06;5.57;;;4.90;;
3853;SDS011;1942;48.770;8.934;2022-07-29T01:51:37;4.27;;;3.87;;
3853;SDS011;1942;48.770;8.934;2022-07-29T01:54:10;4.30;;;3.70;;
3853;SDS011;1942;48.770;8.934;2022-07-29T01:56:42;5.90;;;4.50;;
3853;SDS011;1942;48.770;8.934;2022-07-29T01:59:12;4.83;;;4.00;;
3853;SDS011;1942;48.770;8.934;2022-07-29T02:01:41;4.53;;;4.00;;
3853;SDS011;1942;48.770;8.934;2022-07-29T02:04:10;4.50;;;3.70;;
3853;SDS011;1942;48.770;8.934;2022-07-29T02:06:38;5.30;;;4.73;;
3853;SDS011;1942;48.770;8.934;2022-07-29T02:09:08;4.47;;;4.07;;
3853;SDS011;1942;48.770;8.934;2022-07-29T02:11:37;3.73;;;3.40;;
3853;SDS011;1942;48.770;8.934;2022-07-29T02:14:05;4.00;;;3.60;;
3853;SDS011;1942;48.770;8.934;2022-07-29T02:16:37;3.43;;;3.13;;
3853;SDS011;1942;48.770;8.934;2022-07-29T02:19:06;4.83;;;3.30;;
3853;SDS011;1942;48.770;8.934;2022-07-29T02:21:34;5.00;;;3.00;;
3853;SDS011;1942;48.770;8.934;2022-07-29T02:24:01;4.73;;;3.17;;
3853;SDS011;1942;48.770;8.934;2022-07-29T02:26:30;3.30;;;3.00;;
3853;SDS011;1942;48.770;8.934;2022-07-29T02:28:59;4.23;;;3.43;;
3853;SDS011;1942;48.770;8.934;2022-07-29T02:31:28;4.30;;;3.90;;
3853;SDS011;1942;48.770;8.934;2022-07-29T02:34:00;4.70;;;4.30;;
3853;SDS011;1942;48.770;8.934;2022-07-29T02:36:29;6.63;;;4.37;;
3853;SDS011;1942;48.770;8.934;2022-07-29T02:42:21;4.47;;;4.07;;
3853;SDS011;1942;48.770;8.934;2022-07-29T02:44:50;4.70;;;3.83;;
3853;SDS011;1942;48.770;8.934;2022-07-29T02:47:18;5.40;;;4.90;;
3853;SDS011;1942;48.770;8.934;2022-07-29T02:49:51;5.10;;;4.13;;
3853;SDS011;1942;48.770;8.934;2022-07-29T02:52:24;5.40;;;4.10;;
3853;SDS011;1942;48.770;8.934;2022-07-29T02:54:55;4.13;;;3.77;;
3853;SDS011;1942;48.770;8.934;2022-07-29T02:57:29;3.77;;;3.47;;
3853;SDS011;1942;48.770;8.934;2022-07-29T03:00:00;4.20;;;3.80;;
3853;SDS011;1942;48.770;8.934;2022-07-29T03:02:30;3.70;;;3.40;;
3853;SDS011;1942;48.770;8.934;2022-07-29T03:05:03;4.47;;;3.80;;
3853;SDS011;1942;48.770;8.934;2022-07-29T03:07:32;5.20;;;3.97;;
3853;SDS011;1942;48.770;8.934;2022-07-29T03:10:00;5.53;;;4.03;;
3853;SDS011;1942;48.770;8.934;2022-07-29T03:12:28;3.80;;;3.50;;
3853;SDS011;1942;48.770;8.934;2022-07-29T03:14:56;3.73;;;3.43;;
3853;SDS011;1942;48.770;8.934;2022-07-29T03:17:24;4.47;;;3.60;;
3853;SDS011;1942;48.770;8.934;2022-07-29T03:19:52;3.50;;;3.20;;
3853;SDS011;1942;48.770;8.934;2022-07-29T03:22:20;3.90;;;3.47;;
3853;SDS011;1942;48.770;8.934;2022-07-29T03:24:47;3.17;;;2.90;;
3853;SDS011;1942;48.770;8.934;2022-07-29T03:27:14;3.37;;;3.00;;
3853;SDS011;1942;48.770;8.934;2022-07-29T03:29:40;3.60;;;3.10;;
3853;SDS011;1942;48.770;8.934;2022-07-29T03:32:07;3.03;;;2.83;;
3853;SDS011;1942;48.770;8.934;2022-07-29T03:34:34;2.87;;;2.67;;
3853;SDS011;1942;48.770;8.934;2022-07-29T03:37:02;3.70;;;3.33;;
3853;SDS011;1942;48.770;8.934;2022-07-29T03:39:33;3.33;;;3.00;;
3853;SDS011;1942;48.770;8.934;2022-07-29T03:42:02;2.93;;;2.73;;
3853;SDS011;1942;48.770;8.934;2022-07-29T03:44:32;3.90;;;3.53;;
3853;SDS011;1942;48.770;8.934;2022-07-29T03:47:00;2.97;;;2.77;;
3853;SDS011;1942;48.770;8.934;2022-07-29T03:49:30;3.30;;;3.00;;
3853;SDS011;1942;48.770;8.934;2022-07-29T03:51:58;3.47;;;3.10;;
3853;SDS011;1942;48.770;8.934;2022-07-29T03:54:25;4.07;;;3.50;;
3853;SDS011;1942;48.770;8.934;2022-07-29T03:56:54;5.17;;;3.57;;
3853;SDS011;1942;48.770;8.934;2022-07-29T03:59:23;3.17;;;2.87;;
3853;SDS011;1942;48.770;8.934;2022-07-29T04:01:50;3.30;;;3.00;;
3853;SDS011;1942;48.770;8.934;2022-07-29T04:04:17;3.60;;;2.83;;
3853;SDS011;1942;48.770;8.934;2022-07-29T04:06:45;3.37;;;3.07;;
3853;SDS011;1942;48.770;8.934;2022-07-29T04:09:12;3.47;;;3.17;;
3853;SDS011;1942;48.770;8.934;2022-07-29T04:11:39;3.20;;;3.00;;
3853;SDS011;1942;48.770;8.934;2022-07-29T04:14:09;3.90;;;3.50;;
3853;SDS011;1942;48.770;8.934;2022-07-29T04:16:35;3.57;;;3.27;;
3853;SDS011;1942;48.770;8.934;2022-07-29T04:19:02;3.50;;;3.20;;
3853;SDS011;1942;48.770;8.934;2022-07-29T04:21:29;3.50;;;3.17;;
3853;SDS011;1942;48.770;8.934;2022-07-29T04:23:56;5.17;;;3.80;;
3853;SDS011;1942;48.770;8.934;2022-07-29T04:26:22;3.63;;;3.33;;
3853;SDS011;1942;48.770;8.934;2022-07-29T04:28:49;3.30;;;3.00;;
3853;SDS011;1942;48.770;8.934;2022-07-29T04:31:17;3.00;;;2.80;;
3853;SDS011;1942;48.770;8.934;2022-07-29T04:33:44;2.93;;;2.73;;
3853;SDS011;1942;48.770;8.934;2022-07-29T04:36:10;3.67;;;3.10;;
3853;SDS011;1942;48.770;8.934;2022-07-29T04:38:37;3.67;;;3.07;;
3853;SDS011;1942;48.770;8.934;2022-07-29T04:41:04;3.90;;;2.83;;
3853;SDS011;1942;48.770;8.934;2022-07-29T04:43:33;3.03;;;2.77;;
3853;SDS011;1942;48.770;8.934;2022-07-29T04:46:00;3.60;;;3.00;;
3853;SDS011;1942;48.770;8.934;2022-07-29T04:48:28;3.77;;;3.43;;
3853;SDS011;1942;48.770;8.934;2022-07-29T04:50:55;4.40;;;3.57;;
3853;SDS011;1942;48.770;8.934;2022-07-29T04:53:22;3.93;;;3.20;;
3853;SDS011;1942;48.770;8.934;2022-07-29T04:55:49;3.40;;;3.10;;
3853;SDS011;1942;48.770;8.934;2022-07-29T04:58:15;3.57;;;3.27;;
3853;SDS011;1942;48.770;8.934;2022-07-29T05:00:42;4.63;;;3.33;;
3853;SDS011;1942;48.770;8.934;2022-07-29T05:03:09;3.20;;;2.90;;
3853;SDS011;1942;48.770;8.934;2022-07-29T05:05:37;3.43;;;3.13;;
3853;SDS011;1942;48.770;8.934;2022-07-29T05:08:04;4.97;;;3.00;;
3853;SDS011;1942;48.770;8.934;2022-07-29T05:10:31;3.93;;;3.30;;
3853;SDS011;1942;48.770;8.934;2022-07-29T05:12:58;4.10;;;3.70;;
3853;SDS011;1942;48.770;8.934;2022-07-29T05:15:25;4.27;;;3.87;;
3853;SDS011;1942;48.770;8.934;2022-07-29T05:17:52;3.67;;;3.37;;
3853;SDS011;1942;48.770;8.934;2022-07-29T05:20:19;4.27;;;3.83;;
3853;SDS011;1942;48.770;8.934;2022-07-29T05:22:52;4.37;;;3.97;;
3853;SDS011;1942;48.770;8.934;2022-07-29T05:25:18;3.93;;;3.63;;
3853;SDS011;1942;48.770;8.934;2022-07-29T05:27:46;4.07;;;3.67;;
3853;SDS011;1942;48.770;8.934;2022-07-29T05:30:13;4.20;;;3.80;;
3853;SDS011;1942;48.770;8.934;2022-07-29T05:32:39;3.80;;;3.40;;
3853;SDS011;1942;48.770;8.934;2022-07-29T05:35:06;4.33;;;3.93;;
3853;SDS011;1942;48.770;8.934;2022-07-29T05:37:33;4.47;;;3.50;;
3853;SDS011;1942;48.770;8.934;2022-07-29T05:40:02;4.23;;;3.90;;
3853;SDS011;1942;48.770;8.934;2022-07-29T05:42:29;7.33;;;4.10;;
3853;SDS011;1942;48.770;8.934;2022-07-29T05:44:56;6.27;;;4.30;;
3853;SDS011;1942;48.770;8.934;2022-07-29T05:47:23;4.73;;;4.27;;
3853;SDS011;1942;48.770;8.934;2022-07-29T05:49:50;4.80;;;3.80;;
3853;SDS011;1942;48.770;8.934;2022-07-29T05:52:16;4.50;;;4.10;;
3853;SDS011;1942;48.770;8.934;2022-07-29T05:54:43;4.90;;;4.47;;
3853;SDS011;1942;48.770;8.934;2022-07-29T05:57:16;4.67;;;4.17;;
3853;SDS011;1942;48.770;8.934;2022-07-29T05:59:42;5.43;;;4.43;;
3853;SDS011;1942;48.770;8.934;2022-07-29T06:02:09;4.77;;;4.07;;
3853;SDS011;1942;48.770;8.934;2022-07-29T06:04:36;4.43;;;4.07;;
3853;SDS011;1942;48.770;8.934;2022-07-29T06:07:03;5.63;;;5.00;;
3853;SDS011;1942;48.770;8.934;2022-07-29T06:09:31;5.77;;;5.10;;
3853;SDS011;1942;48.770;8.934;2022-07-29T06:11:58;5.40;;;4.53;;
3853;SDS011;1942;48.770;8.934;2022-07-29T06:14:26;9.47;;;5.50;;
3853;SDS011;1942;48.770;8.934;2022-07-29T06:16:53;4.93;;;4.23;;
3853;SDS011;1942;48.770;8.934;2022-07-29T06:19:20;6.40;;;5.03;;
3853;SDS011;1942;48.770;8.934;2022-07-29T06:21:47;4.63;;;4.23;;
3853;SDS011;1942;48.770;8.934;2022-07-29T06:24:14;4.33;;;3.97;;
3853;SDS011;1942;48.770;8.934;2022-07-29T06:26:41;5.10;;;4.00;;
3853;SDS011;1942;48.770;8.934;2022-07-29T06:29:08;4.67;;;4.27;;
3853;SDS011;1942;48.770;8.934;2022-07-29T06:31:37;5.27;;;4.77;;
3853;SDS011;1942;48.770;8.934;2022-07-29T06:34:05;4.93;;;4.43;;
3853;SDS011;1942;48.770;8.934;2022-07-29T06:36:33;4.27;;;3.87;;
3853;SDS011;1942;48.770;8.934;2022-07-29T06:39:00;5.23;;;4.70;;
3853;SDS011;1942;48.770;8.934;2022-07-29T06:41:29;4.63;;;3.73;;
3853;SDS011;1942;48.770;8.934;2022-07-29T06:43:56;5.03;;;4.53;;
3853;SDS011;1942;48.770;8.934;2022-07-29T06:46:22;4.57;;;4.13;;
3853;SDS011;1942;48.770;8.934;2022-07-29T06:48:51;4.47;;;4.07;;
3853;SDS011;1942;48.770;8.934;2022-07-29T06:51:18;4.47;;;4.07;;
3853;SDS011;1942;48.770;8.934;2022-07-29T06:53:45;4.53;;;4.13;;
3853;SDS011;1942;48.770;8.934;2022-07-29T06:56:12;4.70;;;4.30;;
3853;SDS011;1942;48.770;8.934;2022-07-29T06:58:39;4.83;;;4.33;;
3853;SDS011;1942;48.770;8.934;2022-07-29T07:01:06;4.25;;;3.85;;
3853;SDS011;1942;48.770;8.934;2022-07-29T07:03:33;5.50;;;4.35;;
3853;SDS011;1942;48.770;8.934;2022-07-29T07:06:01;6.90;;;4.20;;
3853;SDS011;1942;48.770;8.934;2022-07-29T07:08:28;4.33;;;3.93;;
3853;SDS011;1942;48.770;8.934;2022-07-29T07:10:55;6.35;;;3.97;;
3853;SDS011;1942;48.770;8.934;2022-07-29T07:13:21;4.57;;;4.18;;
3853;SDS011;1942;48.770;8.934;2022-07-29T07:15:48;4.95;;;4.45;;
3853;SDS011;1942;48.770;8.934;2022-07-29T07:18:16;5.30;;;4.70;;
3853;SDS011;1942;48.770;8.934;2022-07-29T07:20:44;4.57;;;4.18;;
3853;SDS011;1942;48.770;8.934;2022-07-29T07:23:12;4.50;;;4.15;;
3853;SDS011;1942;48.770;8.934;2022-07-29T07:25:39;4.78;;;4.20;;
3853;SDS011;1942;48.770;8.934;2022-07-29T07:28:05;6.88;;;5.03;;
3853;SDS011;1942;48.770;8.934;2022-07-29T07:30:32;4.45;;;4.05;;
3853;SDS011;1942;48.770;8.934;2022-07-29T07:32:59;4.72;;;4.07;;
3853;SDS011;1942;48.770;8.934;2022-07-29T07:35:26;5.57;;;4.03;;
3853;SDS011;1942;48.770;8.934;2022-07-29T07:37:53;5.93;;;5.13;;
3853;SDS011;1942;48.770;8.934;2022-07-29T07:40:21;5.22;;;4.10;;
3853;SDS011;1942;48.770;8.934;2022-07-29T07:42:48;5.40;;;4.43;;
3853;SDS011;1942;48.770;8.934;2022-07-29T07:45:15;5.40;;;4.13;;
3853;SDS011;1942;48.770;8.934;2022-07-29T07:47:42;4.07;;;3.70;;
3853;SDS011;1942;48.770;8.934;2022-07-29T07:50:10;4.18;;;3.88;;
3853;SDS011;1942;48.770;8.934;2022-07-29T07:52:45;5.38;;;4.13;;
3853;SDS011;1942;48.770;8.934;2022-07-29T07:55:13;5.18;;;3.90;;
3853;SDS011;1942;48.770;8.934;2022-07-29T07:57:41;4.88;;;3.80;;
3853;SDS011;1942;48.770;8.934;2022-07-29T08:00:08;4.93;;;4.30;;
3853;SDS011;1942;48.770;8.934;2022-07-29T08:02:35;5.35;;;4.80;;
3853;SDS011;1942;48.770;8.934;2022-07-29T08:05:03;4.20;;;3.83;;
3853;SDS011;1942;48.770;8.934;2022-07-29T08:07:30;5.75;;;4.53;;
3853;SDS011;1942;48.770;8.934;2022-07-29T08:09:57;6.72;;;4.30;;
3853;SDS011;1942;48.770;8.934;2022-07-29T08:12:23;6.20;;;4.68;;
3853;SDS011;1942;48.770;8.934;2022-07-29T08:14:51;8.02;;;6.70;;
3853;SDS011;1942;48.770;8.934;2022-07-29T08:17:19;8.30;;;6.95;;
3853;SDS011;1942;48.770;8.934;2022-07-29T08:19:45;4.75;;;4.22;;
3853;SDS011;1942;48.770;8.934;2022-07-29T08:22:13;6.15;;;4.15;;
3853;SDS011;1942;48.770;8.934;2022-07-29T08:24:40;3.83;;;3.42;;
3853;SDS011;1942;48.770;8.934;2022-07-29T08:27:12;9.52;;;7.55;;
3853;SDS011;1942;48.770;8.934;2022-07-29T08:29:39;5.05;;;4.55;;
3853;SDS011;1942;48.770;8.934;2022-07-29T08:32:08;5.25;;;4.03;;
3853;SDS011;1942;48.770;8.934;2022-07-29T08:34:34;11.85;;;10.68;;
3853;SDS011;1942;48.770;8.934;2022-07-29T08:37:01;6.88;;;5.63;;
3853;SDS011;1942;48.770;8.934;2022-07-29T08:39:28;4.93;;;3.97;;
3853;SDS011;1942;48.770;8.934;2022-07-29T08:41:55;4.25;;;3.70;;
3853;SDS011;1942;48.770;8.934;2022-07-29T08:44:22;4.78;;;4.03;;
3853;SDS011;1942;48.770;8.934;2022-07-29T08:46:49;3.70;;;3.40;;
3853;SDS011;1942;48.770;8.934;2022-07-29T08:49:17;6.05;;;4.90;;
3853;SDS011;1942;48.770;8.934;2022-07-29T08:51:44;6.68;;;5.00;;
3853;SDS011;1942;48.770;8.934;2022-07-29T08:54:11;4.80;;;4.30;;
3853;SDS011;1942;48.770;8.934;2022-07-29T08:56:43;6.63;;;4.05;;
3853;SDS011;1942;48.770;8.934;2022-07-29T08:59:14;4.22;;;3.78;;
3853;SDS011;1942;48.770;8.934;2022-07-29T09:01:41;4.10;;;3.70;;
3853;SDS011;1942;48.770;8.934;2022-07-29T09:04:11;8.02;;;7.00;;
3853;SDS011;1942;48.770;8.934;2022-07-29T09:06:42;6.60;;;5.28;;
3853;SDS011;1942;48.770;8.934;2022-07-29T09:09:10;5.82;;;5.22;;
3853;SDS011;1942;48.770;8.934;2022-07-29T09:11:38;8.85;;;5.28;;
3853;SDS011;1942;48.770;8.934;2022-07-29T09:14:05;4.22;;;3.83;;
3853;SDS011;1942;48.770;8.934;2022-07-29T09:16:45;4.38;;;3.83;;
3853;SDS011;1942;48.770;8.934;2022-07-29T09:19:24;5.07;;;4.22;;
3853;SDS011;1942;48.770;8.934;2022-07-29T09:21:54;5.93;;;4.65;;
3853;SDS011;1942;48.770;8.934;2022-07-29T09:24:36;3.97;;;3.58;;
3853;SDS011;1942;48.770;8.934;2022-07-29T09:27:08;5.00;;;3.78;;
3853;SDS011;1942;48.770;8.934;2022-07-29T09:29:46;4.40;;;3.53;;
3853;SDS011;1942;48.770;8.934;2022-07-29T09:32:13;5.40;;;4.05;;
3853;SDS011;1942;48.770;8.934;2022-07-29T09:34:40;5.97;;;3.20;;
3853;SDS011;1942;48.770;8.934;2022-07-29T09:37:08;3.60;;;3.22;;
3853;SDS011;1942;48.770;8.934;2022-07-29T09:39:37;3.95;;;3.65;;
3853;SDS011;1942;48.770;8.934;2022-07-29T09:42:10;6.47;;;3.33;;
3853;SDS011;1942;48.770;8.934;2022-07-29T09:44:42;4.90;;;3.63;;
3853;SDS011;1942;48.770;8.934;2022-07-29T09:47:10;4.05;;;3.55;;
3853;SDS011;1942;48.770;8.934;2022-07-29T09:49:49;5.57;;;4.22;;
3853;SDS011;1942;48.770;8.934;2022-07-29T09:52:18;4.28;;;3.63;;
3853;SDS011;1942;48.770;8.934;2022-07-29T09:54:46;3.58;;;3.28;;
3853;SDS011;1942;48.770;8.934;2022-07-29T09:57:24;4.28;;;3.58;;
3853;SDS011;1942;48.770;8.934;2022-07-29T09:59:55;6.13;;;3.97;;
3853;SDS011;1942;48.770;8.934;2022-07-29T10:02:27;4.40;;;3.50;;
3853;SDS011;1942;48.770;8.934;2022-07-29T10:04:55;3.72;;;3.42;;
3853;SDS011;1942;48.770;8.934;2022-07-29T10:07:24;4.03;;;3.40;;
3853;SDS011;1942;48.770;8.934;2022-07-29T10:09:54;4.00;;;3.60;;
3853;SDS011;1942;48.770;8.934;2022-07-29T10:12:23;4.28;;;3.38;;
3853;SDS011;1942;48.770;8.934;2022-07-29T10:14:50;5.13;;;3.55;;
3853;SDS011;1942;48.770;8.934;2022-07-29T10:17:17;4.47;;;3.80;;
3853;SDS011;1942;48.770;8.934;2022-07-29T10:19:44;3.67;;;3.20;;
3853;SDS011;1942;48.770;8.934;2022-07-29T10:22:11;6.25;;;3.80;;
3853;SDS011;1942;48.770;8.934;2022-07-29T10:24:40;16.38;;;5.80;;
3853;SDS011;1942;48.770;8.934;2022-07-29T10:27:07;12.05;;;6.35;;
3853;SDS011;1942;48.770;8.934;2022-07-29T10:29:34;13.00;;;6.20;;
3853;SDS011;1942;48.770;8.934;2022-07-29T10:32:07;13.30;;;11.50;;
3853;SDS011;1942;48.770;8.934;2022-07-29T10:34:57;12.35;;;9.55;;
3853;SDS011;1942;48.770;8.934;2022-07-29T10:37:42;9.88;;;7.10;;
3853;SDS011;1942;48.770;8.934;2022-07-29T10:40:22;11.60;;;7.43;;
3853;SDS011;1942;48.770;8.934;2022-07-29T10:43:14;11.93;;;8.13;;
3853;SDS011;1942;48.770;8.934;2022-07-29T10:45:45;9.03;;;8.13;;
3853;SDS011;1942;48.770;8.934;2022-07-29T10:48:13;10.03;;;8.27;;
3853;SDS011;1942;48.770;8.934;2022-07-29T10:50:52;9.97;;;8.97;;
3853;SDS011;1942;48.770;8.934;2022-07-29T10:53:20;10.30;;;8.10;;
3853;SDS011;1942;48.770;8.934;2022-07-29T10:55:48;11.47;;;9.47;;
3853;SDS011;1942;48.770;8.934;2022-07-29T10:58:17;15.67;;;9.53;;
3853;SDS011;1942;48.770;8.934;2022-07-29T11:00:45;12.80;;;9.47;;
3853;SDS011;1942;48.770;8.934;2022-07-29T11:06:12;11.40;;;9.93;;
3853;SDS011;1942;48.770;8.934;2022-07-29T11:08:39;12.43;;;10.27;;
3853;SDS011;1942;48.770;8.934;2022-07-29T11:14:06;14.27;;;10.87;;
3853;SDS011;1942;48.770;8.934;2022-07-29T11:19:28;15.70;;;13.87;;
3853;SDS011;1942;48.770;8.934;2022-07-29T11:21:55;14.23;;;12.73;;
3853;SDS011;1942;48.770;8.934;2022-07-29T11:24:23;14.27;;;12.83;;
3853;SDS011;1942;48.770;8.934;2022-07-29T11:27:07;13.97;;;12.50;;
3853;SDS011;1942;48.770;8.934;2022-07-29T11:29:35;16.40;;;11.53;;
3853;SDS011;1942;48.770;8.934;2022-07-29T11:32:08;17.07;;;11.03;;
3853;SDS011;1942;48.770;8.934;2022-07-29T11:34:37;13.20;;;10.53;;
3853;SDS011;1942;48.770;8.934;2022-07-29T11:37:21;10.07;;;8.63;;
3853;SDS011;1942;48.770;8.934;2022-07-29T11:40:09;10.23;;;9.23;;
3853;SDS011;1942;48.770;8.934;2022-07-29T11:42:51;9.40;;;8.30;;
3853;SDS011;1942;48.770;8.934;2022-07-29T11:45:22;8.50;;;7.50;;
3853;SDS011;1942;48.770;8.934;2022-07-29T11:47:55;9.13;;;8.23;;
3853;SDS011;1942;48.770;8.934;2022-07-29T11:50:31;8.40;;;7.60;;
3853;SDS011;1942;48.770;8.934;2022-07-29T11:52:59;8.20;;;7.37;;
3853;SDS011;1942;48.770;8.934;2022-07-29T11:55:28;10.63;;;9.53;;
3853;SDS011;1942;48.770;8.934;2022-07-29T11:57:58;11.07;;;9.17;;
3853;SDS011;1942;48.770;8.934;2022-07-29T12:00:27;9.90;;;8.93;;
3853;SDS011;1942;48.770;8.934;2022-07-29T12:02:57;11.03;;;8.80;;
3853;SDS011;1942;48.770;8.934;2022-07-29T12:05:35;10.50;;;8.90;;
3853;SDS011;1942;48.770;8.934;2022-07-29T12:08:07;9.40;;;8.50;;
3853;SDS011;1942;48.770;8.934;2022-07-29T12:10:39;9.77;;;8.57;;
3853;SDS011;1942;48.770;8.934;2022-07-29T12:13:08;11.07;;;8.93;;
3853;SDS011;1942;48.770;8.934;2022-07-29T12:15:35;9.33;;;8.30;;
3853;SDS011;1942;48.770;8.934;2022-07-29T12:18:12;10.27;;;8.13;;
3853;SDS011;1942;48.770;8.934;2022-07-29T12:20:40;9.63;;;8.23;;
3853;SDS011;1942;48.770;8.934;2022-07-29T12:23:07;10.23;;;9.23;;
3853;SDS011;1942;48.770;8.934;2022-07-29T12:25:36;10.53;;;9.43;;
3853;SDS011;1942;48.770;8.934;2022-07-29T12:28:04;9.70;;;8.70;;
3853;SDS011;1942;48.770;8.934;2022-07-29T12:30:36;11.33;;;10.13;;
3853;SDS011;1942;48.770;8.934;2022-07-29T12:33:15;11.63;;;9.90;;
3853;SDS011;1942;48.770;8.934;2022-07-29T12:35:44;11.20;;;10.00;;
3853;SDS011;1942;48.770;8.934;2022-07-29T12:38:13;11.93;;;9.53;;
3853;SDS011;1942;48.770;8.934;2022-07-29T12:40:41;11.40;;;9.77;;
3853;SDS011;1942;48.770;8.934;2022-07-29T12:43:10;10.03;;;9.00;;
3853;SDS011;1942;48.770;8.934;2022-07-29T12:45:39;10.70;;;9.60;;
3853;SDS011;1942;48.770;8.934;2022-07-29T12:48:09;9.80;;;8.90;;
3853;SDS011;1942;48.770;8.934;2022-07-29T12:50:37;10.23;;;9.23;;
3853;SDS011;1942;48.770;8.934;2022-07-29T12:53:18;11.90;;;9.20;;
3853;SDS011;1942;48.770;8.934;2022-07-29T12:55:47;9.43;;;8.53;;
3853;SDS011;1942;48.770;8.934;2022-07-29T12:58:29;9.80;;;8.47;;
3853;SDS011;1942;48.770;8.934;2022-07-29T13:01:01;8.63;;;7.63;;
3853;SDS011;1942;48.770;8.934;2022-07-29T13:03:41;8.67;;;7.87;;
3853;SDS011;1942;48.770;8.934;2022-07-29T13:09:05;8.80;;;7.77;;
3853;SDS011;1942;48.770;8.934;2022-07-29T13:11:35;14.10;;;10.80;;
3853;SDS011;1942;48.770;8.934;2022-07-29T13:14:04;8.07;;;7.27;;
3853;SDS011;1942;48.770;8.934;2022-07-29T13:16:34;8.63;;;7.73;;
3853;SDS011;1942;48.770;8.934;2022-07-29T13:19:03;7.93;;;7.13;;
3853;SDS011;1942;48.770;8.934;2022-07-29T13:21:31;8.40;;;7.57;;
3853;SDS011;1942;48.770;8.934;2022-07-29T13:23:58;8.70;;;7.90;;
3853;SDS011;1942;48.770;8.934;2022-07-29T13:26:25;9.70;;;8.70;;
3853;SDS011;1942;48.770;8.934;2022-07-29T13:28:52;9.53;;;8.63;;
3853;SDS011;1942;48.770;8.934;2022-07-29T13:31:19;9.33;;;8.37;;
3853;SDS011;1942;48.770;8.934;2022-07-29T13:33:48;9.83;;;8.93;;
3853;SDS011;1942;48.770;8.934;2022-07-29T13:36:15;9.07;;;8.17;;
3853;SDS011;1942;48.770;8.934;2022-07-29T13:38:42;9.87;;;8.17;;
3853;SDS011;1942;48.770;8.934;2022-07-29T13:41:09;11.77;;;9.10;;
3853;SDS011;1942;48.770;8.934;2022-07-29T13:43:36;8.70;;;7.90;;
3853;SDS011;1942;48.770;8.934;2022-07-29T13:46:03;7.80;;;7.10;;
3853;SDS011;1942;48.770;8.934;2022-07-29T13:48:30;7.70;;;7.00;;
3853;SDS011;1942;48.770;8.934;2022-07-29T13:50:58;7.23;;;6.63;;
3853;SDS011;1942;48.770;8.934;2022-07-29T13:53:25;7.47;;;6.77;;
3853;SDS011;1942;48.770;8.934;2022-07-29T13:55:55;8.80;;;7.90;;
3853;SDS011;1942;48.770;8.934;2022-07-29T13:58:22;8.47;;;7.13;;
3853;SDS011;1942;48.770;8.934;2022-07-29T14:00:49;7.50;;;6.80;;
3853;SDS011;1942;48.770;8.934;2022-07-29T14:03:16;7.40;;;6.70;;
3853;SDS011;1942;48.770;8.934;2022-07-29T14:05:43;7.97;;;7.27;;
3853;SDS011;1942;48.770;8.934;2022-07-29T14:08:11;7.53;;;6.82;;
3853;SDS011;1942;48.770;8.934;2022-07-29T14:10:38;8.60;;;6.87;;
3853;SDS011;1942;48.770;8.934;2022-07-29T14:13:05;7.57;;;6.87;;
3853;SDS011;1942;48.770;8.934;2022-07-29T14:15:32;7.83;;;7.17;;
3853;SDS011;1942;48.770;8.934;2022-07-29T14:17:59;7.73;;;6.80;;
3853;SDS011;1942;48.770;8.934;2022-07-29T14:20:26;8.10;;;7.23;;
3853;SDS011;1942;48.770;8.934;2022-07-29T14:22:54;7.23;;;6.53;;
3853;SDS011;1942;48.770;8.934;2022-07-29T14:25:23;7.20;;;6.50;;
3853;SDS011;1942;48.770;8.934;2022-07-29T14:27:50;7.77;;;6.97;;
3853;SDS011;1942;48.770;8.934;2022-07-29T14:30:18;7.87;;;5.93;;
3853;SDS011;1942;48.770;8.934;2022-07-29T14:32:45;6.85;;;6.30;;
3853;SDS011;1942;48.770;8.934;2022-07-29T14:35:12;9.57;;;8.68;;
3853;SDS011;1942;48.770;8.934;2022-07-29T14:37:38;7.13;;;6.55;;
3853;SDS011;1942;48.770;8.934;2022-07-29T14:40:06;6.90;;;6.20;;
3853;SDS011;1942;48.770;8.934;2022-07-29T14:42:35;7.30;;;6.63;;
3853;SDS011;1942;48.770;8.934;2022-07-29T14:45:02;8.75;;;7.93;;
3853;SDS011;1942;48.770;8.934;2022-07-29T14:47:30;7.90;;;7.07;;
3853;SDS011;1942;48.770;8.934;2022-07-29T14:49:57;7.40;;;6.70;;
3853;SDS011;1942;48.770;8.934;2022-07-29T14:52:24;11.25;;;6.63;;
3853;SDS011;1942;48.770;8.934;2022-07-29T14:54:51;7.28;;;6.57;;
3853;SDS011;1942;48.770;8.934;2022-07-29T14:57:17;6.45;;;5.95;;
3853;SDS011;1942;48.770;8.934;2022-07-29T14:59:46;6.47;;;5.88;;
3853;SDS011;1942;48.770;8.934;2022-07-29T15:02:12;9.15;;;6.07;;
3853;SDS011;1942;48.770;8.934;2022-07-29T15:04:39;6.57;;;5.93;;
3853;SDS011;1942;48.770;8.934;2022-07-29T15:07:06;8.43;;;6.43;;
3853;SDS011;1942;48.770;8.934;2022-07-29T15:09:33;8.30;;;6.38;;
3853;SDS011;1942;48.770;8.934;2022-07-29T15:12:00;7.05;;;6.45;;
3853;SDS011;1942;48.770;8.934;2022-07-29T15:14:27;8.02;;;6.75;;
3853;SDS011;1942;48.770;8.934;2022-07-29T15:16:55;7.55;;;5.70;;
3853;SDS011;1942;48.770;8.934;2022-07-29T15:19:22;7.07;;;5.53;;
3853;SDS011;1942;48.770;8.934;2022-07-29T15:21:49;6.85;;;5.90;;
3853;SDS011;1942;48.770;8.934;2022-07-29T15:24:16;7.13;;;5.88;;
3853;SDS011;1942;48.770;8.934;2022-07-29T15:26:43;6.93;;;6.32;;
3853;SDS011;1942;48.770;8.934;2022-07-29T15:29:10;8.43;;;6.90;;
3853;SDS011;1942;48.770;8.934;2022-07-29T15:31:37;6.88;;;6.28;;
3853;SDS011;1942;48.770;8.934;2022-07-29T15:34:05;8.02;;;6.43;;
3853;SDS011;1942;48.770;8.934;2022-07-29T15:36:31;6.82;;;5.80;;
3853;SDS011;1942;48.770;8.934;2022-07-29T15:38:58;6.70;;;5.95;;
3853;SDS011;1942;48.770;8.934;2022-07-29T15:41:26;8.95;;;6.22;;